Time;durP1;ratioP1;P1;durP2;ratioP2;P2;SDS_P1;SDS_P2;PMS_P1;PMS_P2;Temp;Humidity;BMP_temperature;BMP_pressure;BME280_temperature;BME280_humidity;BME280_pressure;Samples;Min_cycle;Max_cycle;Signal;HPM_P1;HPM_P2
2022/05/09 00:00:09;;;;;;;19.98;5.72;;;6.00;99.90;;;;;;5061257;28;20474;-48
2022/05/09 00:02:36;;;;;;;17.55;5.18;;;6.00;99.90;;;;;;5076418;28;20412;-49
2022/05/09 00:05:02;;;;;;;14.85;5.65;;;5.90;99.90;;;;;;5079750;28;20051;-48
2022/05/09 00:07:28;;;;;;;17.52;5.75;;;5.90;99.90;;;;;;5080115;28;20101;-49
2022/05/09 00:09:54;;;;;;;15.40;5.32;;;5.80;99.90;;;;;;5072926;28;20407;-49
2022/05/09 00:12:20;;;;;;;22.50;7.50;;;5.80;99.90;;;;;;5075021;28;20490;-46
2022/05/09 00:14:46;;;;;;;18.83;6.13;;;5.80;99.90;;;;;;5074200;28;20048;-47
2022/05/09 00:17:12;;;;;;;17.42;5.80;;;5.80;99.90;;;;;;5072575;28;20133;-47
2022/05/09 00:19:37;;;;;;;17.55;6.13;;;5.70;99.90;;;;;;5079138;28;20138;-48
2022/05/09 00:22:04;;;;;;;22.55;6.40;;;5.70;99.90;;;;;;5071245;28;20491;-45
2022/05/09 00:24:30;;;;;;;17.05;5.88;;;5.70;99.90;;;;;;5074117;28;20047;-48
2022/05/09 00:26:57;;;;;;;19.70;6.30;;;5.70;99.90;;;;;;5074032;28;20058;-45
2022/05/09 00:29:24;;;;;;;20.25;6.07;;;5.70;99.90;;;;;;5074894;28;20485;-46
2022/05/09 00:31:53;;;;;;;19.88;5.30;;;5.70;99.90;;;;;;5074899;28;20080;-47
2022/05/09 00:34:21;;;;;;;20.65;5.85;;;5.60;99.90;;;;;;5071363;28;20057;-47
2022/05/09 00:36:48;;;;;;;23.88;6.90;;;5.60;99.90;;;;;;5074544;28;20143;-49
2022/05/09 00:39:14;;;;;;;13.10;6.50;;;5.50;99.90;;;;;;5071034;28;20051;-46
2022/05/09 00:41:42;;;;;;;18.92;6.43;;;5.50;99.90;;;;;;5073776;28;20363;-46
2022/05/09 00:44:20;;;;;;;16.33;6.35;;;5.60;99.90;;;;;;5071180;28;20052;-49
2022/05/09 00:46:49;;;;;;;17.35;5.72;;;5.60;99.90;;;;;;5075331;28;20044;-46
2022/05/09 00:49:47;;;;;;;13.93;5.47;;;5.50;99.90;;;;;;5072915;28;20044;-45
2022/05/09 00:52:44;;;;;;;9.32;4.13;;;5.60;99.90;;;;;;4998332;28;20057;-44
2022/05/09 00:55:21;;;;;;;12.57;3.90;;;5.50;99.90;;;;;;5002982;28;20216;-48
2022/05/09 00:58:06;;;;;;;15.90;4.95;;;5.50;99.90;;;;;;4980451;28;20390;-48
2022/05/09 01:00:33;;;;;;;14.98;5.35;;;5.50;99.90;;;;;;4980909;28;20058;-46
2022/05/09 01:03:04;;;;;;;15.18;5.47;;;5.50;99.90;;;;;;4996467;28;20073;-46
2022/05/09 01:05:31;;;;;;;17.08;5.90;;;5.40;99.90;;;;;;4996312;28;20053;-46
2022/05/09 01:07:58;;;;;;;19.85;6.70;;;5.40;99.90;;;;;;4996922;28;20558;-47
2022/05/09 01:10:32;;;;;;;19.73;5.97;;;5.40;99.90;;;;;;5003152;28;20058;-47
2022/05/09 01:13:03;;;;;;;16.60;5.53;;;5.40;99.90;;;;;;5003713;28;20439;-47
2022/05/09 01:15:30;;;;;;;12.57;5.18;;;5.30;99.90;;;;;;4979416;28;20588;-49
2022/05/09 01:17:58;;;;;;;18.48;5.57;;;5.30;99.90;;;;;;4999037;28;20115;-45
2022/05/09 01:20:24;;;;;;;14.02;6.28;;;5.20;99.90;;;;;;5002173;28;20060;-47
2022/05/09 01:22:49;;;;;;;15.27;6.10;;;5.20;99.90;;;;;;5007710;28;20062;-46
2022/05/09 01:25:16;;;;;;;20.20;6.15;;;5.10;99.90;;;;;;5002326;28;20128;-46
2022/05/09 01:27:45;;;;;;;15.75;6.18;;;5.20;99.90;;;;;;5014964;28;20124;-48
2022/05/09 01:30:22;;;;;;;14.63;6.03;;;5.10;99.90;;;;;;5077485;28;20063;-46
2022/05/09 01:32:59;;;;;;;16.13;6.97;;;5.10;99.90;;;;;;5074090;28;20089;-46
2022/05/09 01:35:31;;;;;;;14.93;5.78;;;5.10;99.90;;;;;;5075663;28;20044;-46
2022/05/09 01:38:24;;;;;;;13.45;5.95;;;5.10;99.90;;;;;;5074405;28;20048;-45
2022/05/09 01:40:50;;;;;;;14.50;6.10;;;5.10;99.90;;;;;;5067268;28;20427;-44
2022/05/09 01:43:48;;;;;;;19.60;7.55;;;5.10;99.90;;;;;;5072216;28;20493;-47
2022/05/09 01:46:28;;;;;;;18.77;6.47;;;5.10;99.90;;;;;;5077058;28;20105;-46
2022/05/09 01:51:42;;;;;;;22.20;7.22;;;5.00;99.90;;;;;;5078443;28;20055;-47
2022/05/09 01:54:08;;;;;;;13.57;6.40;;;5.00;99.90;;;;;;5073370;28;20053;-51
2022/05/09 01:56:37;;;;;;;17.98;6.30;;;5.00;99.90;;;;;;5072166;28;20387;-48
2022/05/09 01:59:06;;;;;;;21.90;6.00;;;5.00;99.90;;;;;;5073418;28;20514;-43
2022/05/09 02:01:43;;;;;;;26.17;7.95;;;5.00;99.90;;;;;;5063663;28;20056;-48
2022/05/09 02:04:11;;;;;;;13.90;5.22;;;5.00;99.90;;;;;;5080526;28;20059;-47
2022/05/09 02:06:38;;;;;;;13.80;5.75;;;5.00;99.90;;;;;;5071635;28;20107;-47
2022/05/09 02:09:04;;;;;;;14.35;6.20;;;5.00;99.90;;;;;;5080367;28;20044;-42
2022/05/09 02:11:30;;;;;;;17.13;5.72;;;5.00;99.90;;;;;;5075137;28;20090;-47
2022/05/09 02:13:56;;;;;;;10.77;5.18;;;4.90;99.90;;;;;;5081630;28;20143;-43
2022/05/09 02:16:22;;;;;;;17.75;6.65;;;4.90;99.90;;;;;;5070744;28;20058;-48
2022/05/09 02:18:48;;;;;;;17.15;5.90;;;5.00;99.90;;;;;;5080074;28;20082;-48
2022/05/09 02:21:13;;;;;;;13.75;7.22;;;5.00;99.90;;;;;;5070150;28;20045;-46
2022/05/09 02:23:39;;;;;;;20.30;7.43;;;5.10;99.90;;;;;;5069787;28;20087;-47
2022/05/09 02:26:05;;;;;;;10.20;5.25;;;5.00;99.90;;;;;;5083453;28;20597;-46
2022/05/09 02:28:31;;;;;;;14.05;5.00;;;5.00;99.90;;;;;;5082636;28;20063;-48
2022/05/09 02:30:57;;;;;;;14.63;5.50;;;5.00;99.90;;;;;;5081896;28;20055;-50
2022/05/09 02:33:23;;;;;;;12.60;5.07;;;5.00;99.90;;;;;;5082479;28;20044;-46
2022/05/09 02:35:49;;;;;;;13.65;5.20;;;5.00;99.90;;;;;;5067143;28;20073;-45
2022/05/09 02:38:18;;;;;;;12.32;5.43;;;5.00;99.90;;;;;;5081939;28;20139;-46
2022/05/09 02:40:44;;;;;;;9.63;4.30;;;4.90;99.90;;;;;;5071721;28;20517;-47
2022/05/09 02:43:10;;;;;;;6.97;3.78;;;4.90;99.90;;;;;;5075741;28;20082;-46
2022/05/09 02:45:36;;;;;;;6.50;3.28;;;4.90;99.90;;;;;;5081494;28;20477;-47
2022/05/09 02:48:02;;;;;;;7.68;2.88;;;4.80;99.90;;;;;;5079480;28;20783;-44
2022/05/09 02:50:28;;;;;;;5.00;2.95;;;4.70;99.90;;;;;;5082605;28;20047;-50
2022/05/09 02:52:54;;;;;;;9.40;3.08;;;4.60;99.90;;;;;;5079145;28;20045;-46
2022/05/09 02:55:21;;;;;;;6.35;3.10;;;4.60;99.90;;;;;;5065874;28;20482;-45
2022/05/09 02:57:48;;;;;;;5.32;3.25;;;4.50;99.90;;;;;;5071442;28;20055;-46
2022/05/09 03:00:29;;;;;;;15.20;4.07;;;4.50;99.90;;;;;;5076551;28;20121;-47
2022/05/09 03:05:41;;;;;;;16.92;5.88;;;4.50;99.90;;;;;;5073657;28;20055;-48
2022/05/09 03:08:12;;;;;;;11.25;4.47;;;4.50;99.90;;;;;;5079940;28;20044;-48
2022/05/09 03:10:39;;;;;;;8.90;4.35;;;4.60;99.90;;;;;;5070003;28;20087;-49
2022/05/09 03:13:07;;;;;;;10.25;4.55;;;4.60;99.90;;;;;;5068818;28;20058;-47
2022/05/09 03:15:38;;;;;;;11.23;4.50;;;4.60;99.90;;;;;;5076674;28;20056;-45
2022/05/09 03:18:04;;;;;;;10.77;4.07;;;4.60;99.90;;;;;;5074214;28;20498;-45
2022/05/09 03:20:30;;;;;;;6.15;3.25;;;4.50;99.90;;;;;;5075429;28;20070;-46
2022/05/09 03:22:56;;;;;;;4.45;2.90;;;4.50;99.90;;;;;;5072336;28;20510;-44
2022/05/09 03:25:22;;;;;;;7.18;2.70;;;4.40;99.90;;;;;;5079686;28;20640;-47
2022/05/09 03:27:48;;;;;;;5.45;2.60;;;4.40;99.90;;;;;;5082021;28;20123;-46
2022/05/09 03:30:15;;;;;;;9.18;4.60;;;4.30;99.90;;;;;;5080644;28;20537;-48
2022/05/09 03:32:41;;;;;;;8.77;4.20;;;4.30;99.90;;;;;;5081209;28;20058;-49
2022/05/09 03:35:08;;;;;;;10.70;5.15;;;4.40;99.90;;;;;;5080424;28;20052;-46
2022/05/09 03:37:35;;;;;;;15.50;4.78;;;4.40;99.90;;;;;;5072892;28;20051;-46
2022/05/09 03:40:00;;;;;;;10.85;4.40;;;4.40;99.90;;;;;;5074735;28;20051;-45
2022/05/09 03:42:26;;;;;;;18.95;5.93;;;4.40;99.90;;;;;;5080319;28;20056;-45
2022/05/09 03:44:52;;;;;;;28.48;6.07;;;4.40;99.90;;;;;;5079620;28;20159;-47
2022/05/09 03:47:18;;;;;;;15.65;5.88;;;4.40;99.90;;;;;;5077783;28;20106;-48
2022/05/09 03:49:44;;;;;;;16.40;5.68;;;4.40;99.90;;;;;;5070780;28;20495;-46
2022/05/09 03:52:10;;;;;;;10.52;4.65;;;4.40;99.90;;;;;;5072077;28;20532;-46
2022/05/09 03:54:36;;;;;;;13.68;5.28;;;4.40;99.90;;;;;;5069589;28;20048;-50
2022/05/09 03:57:02;;;;;;;16.40;5.90;;;4.40;99.90;;;;;;5078340;28;20051;-46
2022/05/09 03:59:28;;;;;;;14.10;6.65;;;4.40;99.90;;;;;;5074711;28;20500;-46
2022/05/09 04:01:56;;;;;;;16.33;5.70;;;4.50;99.90;;;;;;5080374;28;20123;-46
2022/05/09 04:04:22;;;;;;;14.23;5.80;;;4.50;99.90;;;;;;5078737;28;20097;-48
2022/05/09 04:06:51;;;;;;;19.40;6.53;;;4.50;99.90;;;;;;5070197;28;20040;-48
2022/05/09 04:09:17;;;;;;;15.30;5.90;;;4.60;99.90;;;;;;5061518;28;20146;-46
2022/05/09 04:11:45;;;;;;;13.88;6.63;;;4.60;99.90;;;;;;5061474;28;20049;-48
2022/05/09 04:14:11;;;;;;;15.02;5.50;;;4.70;99.90;;;;;;5059702;28;20507;-46
2022/05/09 04:16:49;;;;;;;12.88;6.03;;;4.70;99.90;;;;;;5070515;28;20524;-49
2022/05/09 04:19:19;;;;;;;18.23;7.00;;;4.70;99.90;;;;;;5077161;28;20066;-47
2022/05/09 04:21:45;;;;;;;18.70;7.45;;;4.80;99.90;;;;;;5075476;28;20055;-47
2022/05/09 04:24:11;;;;;;;16.55;7.60;;;4.90;99.90;;;;;;5068047;28;20541;-51
2022/05/09 04:26:37;;;;;;;13.93;7.38;;;5.00;99.90;;;;;;5069204;28;20048;-50
2022/05/09 04:29:03;;;;;;;14.73;6.85;;;5.10;99.90;;;;;;5076400;28;20494;-45
2022/05/09 04:31:29;;;;;;;13.27;6.10;;;5.20;99.90;;;;;;5078588;28;20517;-46
2022/05/09 04:33:55;;;;;;;20.70;8.50;;;5.30;99.90;;;;;;5079636;28;20052;-47
2022/05/09 04:36:22;;;;;;;22.15;7.53;;;5.40;99.90;;;;;;5075086;28;20043;-48
2022/05/09 04:38:50;;;;;;;15.65;7.32;;;5.50;99.90;;;;;;5075199;28;20403;-47
2022/05/09 04:41:19;;;;;;;11.52;6.80;;;5.90;99.90;;;;;;5072641;28;20466;-47
2022/05/09 04:43:46;;;;;;;17.90;6.85;;;6.70;99.90;;;;;;5074688;28;20457;-48
2022/05/09 04:46:14;;;;;;;19.05;7.97;;;7.90;99.90;;;;;;5080230;28;20476;-48
2022/05/09 04:48:42;;;;;;;22.42;7.00;;;9.00;99.90;;;;;;5075369;28;20064;-49
2022/05/09 04:51:08;;;;;;;14.57;6.63;;;10.10;99.90;;;;;;5068304;28;20414;-48
2022/05/09 04:53:34;;;;;;;13.52;5.97;;;11.10;99.90;;;;;;5071830;28;20052;-49
2022/05/09 04:56:00;;;;;;;11.13;5.38;;;12.10;99.90;;;;;;5066712;28;20054;-50
2022/05/09 04:58:28;;;;;;;13.05;5.15;;;13.00;99.90;;;;;;5071328;28;20044;-48
2022/05/09 05:00:54;;;;;;;14.60;5.45;;;13.80;99.90;;;;;;5070770;28;20053;-50
2022/05/09 05:03:20;;;;;;;12.30;5.53;;;14.60;99.90;;;;;;5075226;28;20052;-51
2022/05/09 05:05:46;;;;;;;16.08;5.15;;;15.20;99.90;;;;;;5072405;28;20451;-47
2022/05/09 05:08:13;;;;;;;10.57;5.05;;;15.80;99.90;;;;;;5071490;28;20490;-52
2022/05/09 05:10:39;;;;;;;11.70;5.47;;;16.40;99.90;;;;;;5064421;28;20043;-51
2022/05/09 05:13:05;;;;;;;8.25;4.60;;;16.60;99.90;;;;;;5067101;28;20475;-51
2022/05/09 05:15:32;;;;;;;9.43;4.35;;;17.10;99.90;;;;;;5076522;28;20043;-50
2022/05/09 05:17:57;;;;;;;7.78;4.63;;;17.60;99.90;;;;;;5077439;28;20448;-53
2022/05/09 05:20:24;;;;;;;9.02;4.43;;;18.00;98.80;;;;;;5078622;28;20059;-55
2022/05/09 05:22:50;;;;;;;10.00;4.65;;;18.50;98.10;;;;;;5083711;28;20036;-50
2022/05/09 05:25:20;;;;;;;13.98;4.88;;;18.90;96.90;;;;;;5077499;28;20048;-55
2022/05/09 05:27:47;;;;;;;12.40;4.75;;;19.40;95.40;;;;;;5083293;28;20142;-50
2022/05/09 05:30:14;;;;;;;10.85;5.00;;;19.70;94.90;;;;;;5074839;28;20063;-51
2022/05/09 05:32:42;;;;;;;10.23;4.72;;;20.10;93.50;;;;;;5077931;28;20822;-49
2022/05/09 05:35:14;;;;;;;11.73;5.43;;;20.60;92.60;;;;;;5087337;28;20062;-53
2022/05/09 05:37:40;;;;;;;10.05;4.43;;;21.00;91.10;;;;;;5084527;28;20452;-52
2022/05/09 05:40:06;;;;;;;9.23;5.60;;;21.30;91.40;;;;;;5082178;28;20509;-56
2022/05/09 05:42:32;;;;;;;16.40;5.47;;;22.00;90.90;;;;;;5084254;28;20078;-55
2022/05/09 05:44:58;;;;;;;12.45;5.50;;;22.20;89.70;;;;;;5082099;28;20048;-56
2022/05/09 05:47:24;;;;;;;14.00;5.57;;;22.30;87.70;;;;;;5080103;28;20068;-55
2022/05/09 05:49:50;;;;;;;11.85;5.93;;;22.20;85.20;;;;;;5077686;28;20076;-54
2022/05/09 05:52:17;;;;;;;14.48;5.55;;;22.30;85.80;;;;;;5073483;28;20471;-54
2022/05/09 05:54:45;;;;;;;13.55;5.40;;;22.40;85.60;;;;;;5067525;28;20616;-54
2022/05/09 05:57:25;;;;;;;15.00;5.65;;;22.60;85.30;;;;;;5082878;28;20079;-52
2022/05/09 05:59:57;;;;;;;14.00;5.72;;;22.70;83.10;;;;;;5083755;28;20131;-52
2022/05/09 06:02:24;;;;;;;12.77;5.35;;;23.10;84.30;;;;;;5082316;28;20590;-52
2022/05/09 06:04:50;;;;;;;12.60;5.80;;;23.50;82.40;;;;;;5083946;28;20047;-53
2022/05/09 06:07:17;;;;;;;14.38;6.07;;;23.50;80.60;;;;;;5083949;28;20720;-53
2022/05/09 06:09:47;;;;;;;14.55;6.10;;;23.90;78.60;;;;;;5077402;28;20052;-55
2022/05/09 06:12:15;;;;;;;12.88;5.40;;;24.30;79.40;;;;;;5075001;28;20056;-53
2022/05/09 06:14:41;;;;;;;15.13;5.10;;;24.90;76.60;;;;;;5060470;28;20566;-50
2022/05/09 06:17:08;;;;;;;13.02;4.78;;;24.80;76.80;;;;;;5077085;28;20174;-54
2022/05/09 06:19:34;;;;;;;11.93;5.78;;;25.10;76.10;;;;;;5082671;28;20052;-52
2022/05/09 06:22:01;;;;;;;16.08;5.75;;;24.90;74.30;;;;;;5081135;28;20062;-52
2022/05/09 06:24:27;;;;;;;14.73;6.60;;;25.10;74.50;;;;;;5075489;28;20141;-50
2022/05/09 06:26:52;;;;;;;12.93;6.10;;;26.00;74.70;;;;;;5081120;28;20125;-54
2022/05/09 06:29:18;;;;;;;17.48;5.80;;;26.20;73.60;;;;;;5070824;28;20458;-51
2022/05/09 06:31:45;;;;;;;11.30;5.35;;;25.90;73.80;;;;;;5082092;28;20084;-53
2022/05/09 06:34:13;;;;;;;13.60;5.78;;;26.20;72.90;;;;;;5066740;28;20068;-54
2022/05/09 06:36:41;;;;;;;12.38;5.63;;;26.10;71.40;;;;;;5076593;28;20506;-49
2022/05/09 06:39:09;;;;;;;16.67;5.75;;;26.20;71.70;;;;;;5082154;28;20474;-53
2022/05/09 06:41:35;;;;;;;17.15;5.60;;;25.80;71.50;;;;;;5081910;28;20519;-54
2022/05/09 06:44:01;;;;;;;11.95;5.70;;;25.90;71.50;;;;;;5082023;28;20087;-52
2022/05/09 06:46:27;;;;;;;13.60;6.15;;;25.70;71.70;;;;;;5079570;28;20187;-49
2022/05/09 06:48:52;;;;;;;12.70;5.30;;;25.20;71.70;;;;;;5075969;28;20048;-54
2022/05/09 06:51:18;;;;;;;15.57;5.70;;;25.40;72.10;;;;;;5069248;28;20395;-49
2022/05/09 06:53:44;;;;;;;20.58;6.57;;;25.00;71.80;;;;;;5076432;28;20415;-55
2022/05/09 06:56:10;;;;;;;16.63;6.55;;;25.60;71.30;;;;;;5073935;28;20055;-53
2022/05/09 06:58:37;;;;;;;16.95;5.90;;;24.80;71.10;;;;;;5074822;28;20299;-52
2022/05/09 07:01:15;;;;;;;15.82;6.18;;;25.20;71.80;;;;;;5069159;28;20055;-49
2022/05/09 07:03:42;;;;;;;13.85;5.80;;;25.40;71.00;;;;;;5071882;28;20088;-54
2022/05/09 07:06:08;;;;;;;15.98;5.88;;;24.90;71.90;;;;;;5075097;28;20064;-52
2022/05/09 07:08:34;;;;;;;13.23;6.50;;;24.40;72.20;;;;;;5068143;28;20051;-53
2022/05/09 07:11:02;;;;;;;15.50;6.10;;;23.60;73.70;;;;;;5037183;28;20441;-54
2022/05/09 07:13:29;;;;;;;16.30;5.72;;;22.90;75.30;;;;;;5056004;28;20459;-51
2022/05/09 07:15:57;;;;;;;15.52;6.18;;;22.20;76.80;;;;;;5057023;28;20127;-52
2022/05/09 07:18:27;;;;;;;12.90;5.85;;;21.90;77.30;;;;;;5059670;28;20080;-53
2022/05/09 07:20:53;;;;;;;15.95;6.40;;;21.70;78.00;;;;;;5053258;28;20059;-54
2022/05/09 07:23:19;;;;;;;16.40;6.18;;;21.50;78.70;;;;;;5055311;28;20040;-44
2022/05/09 07:25:51;;;;;;;12.45;5.60;;;21.30;79.40;;;;;;5058107;28;20397;-49
2022/05/09 07:28:21;;;;;;;15.48;5.65;;;21.40;78.90;;;;;;5056202;28;20093;-52
2022/05/09 07:30:47;;;;;;;15.88;6.07;;;21.10;79.20;;;;;;5056797;28;20150;-52
2022/05/09 07:33:18;;;;;;;16.90;7.13;;;21.20;80.10;;;;;;5034615;28;20048;-49
2022/05/09 07:35:45;;;;;;;15.63;6.15;;;21.20;80.10;;;;;;5055961;28;20395;-52
2022/05/09 07:38:11;;;;;;;15.57;5.80;;;21.20;80.30;;;;;;5051359;28;20613;-52
2022/05/09 07:41:07;;;;;;;15.93;5.78;;;21.00;80.30;;;;;;5054554;28;20052;-54
2022/05/09 07:43:52;;;;;;;14.63;5.57;;;20.60;80.40;;;;;;4996606;28;20487;-48
2022/05/09 07:46:18;;;;;;;14.15;5.15;;;20.70;81.10;;;;;;4982145;28;20104;-52
2022/05/09 07:48:44;;;;;;;15.52;5.97;;;20.50;81.50;;;;;;4998663;28;20586;-53
2022/05/09 07:51:29;;;;;;;14.10;5.22;;;20.40;82.10;;;;;;4975508;28;20063;-52
2022/05/09 07:53:54;;;;;;;13.35;4.65;;;20.40;82.80;;;;;;4987791;28;20062;-52
2022/05/09 07:56:20;;;;;;;16.58;5.53;;;20.30;83.80;;;;;;4976021;28;20062;-49
2022/05/09 07:58:46;;;;;;;13.52;5.10;;;20.20;84.50;;;;;;4989906;28;20198;-51
2022/05/09 08:01:19;;;;;;;16.40;5.65;;;20.30;83.50;;;;;;4986833;28;20182;-51
2022/05/09 08:04:02;;;;;;;11.45;5.97;;;20.40;84.30;;;;;;4974025;28;20057;-54
2022/05/09 08:06:28;;;;;;;11.35;5.20;;;20.60;86.00;;;;;;4977428;28;20111;-51
2022/05/09 08:08:54;;;;;;;14.55;5.15;;;20.60;83.20;;;;;;4993110;28;20055;-54
2022/05/09 08:11:21;;;;;;;14.20;5.40;;;20.40;83.30;;;;;;4985877;28;20053;-49
2022/05/09 08:14:43;;;;;;;;;;;;;;;;;;;;;
2022/05/09 08:17:09;;;;;;;13.73;5.20;;;20.30;83.10;;;;;;4900463;29;20068;-53
2022/05/09 08:20:04;;;;;;;12.63;4.57;;;20.30;85.50;;;;;;4916390;28;20102;-53
2022/05/09 08:22:36;;;;;;;11.90;4.57;;;20.30;82.30;;;;;;4877585;29;20540;-50
2022/05/09 08:25:05;;;;;;;11.65;5.07;;;20.40;82.50;;;;;;4886484;29;20056;-53
2022/05/09 08:27:34;;;;;;;12.55;5.15;;;20.40;82.00;;;;;;4867401;29;20559;-49
2022/05/09 08:30:00;;;;;;;10.88;5.45;;;20.40;81.70;;;;;;4868517;29;20060;-51
2022/05/09 08:32:27;;;;;;;14.50;5.47;;;20.50;82.60;;;;;;4885412;29;20433;-47
2022/05/09 08:34:53;;;;;;;14.38;6.13;;;20.30;82.00;;;;;;4880168;29;20104;-52
2022/05/09 08:37:20;;;;;;;12.30;5.70;;;20.30;82.20;;;;;;4884650;29;20052;-52
2022/05/09 08:39:47;;;;;;;13.95;5.20;;;20.40;82.20;;;;;;4883036;29;20632;-51
2022/05/09 08:42:21;;;;;;;15.13;5.28;;;20.40;82.10;;;;;;4866156;29;20144;-53
2022/05/09 08:44:51;;;;;;;10.60;4.65;;;20.40;82.40;;;;;;4882275;29;20497;-48
2022/05/09 08:47:54;;;;;;;12.07;4.32;;;20.30;82.30;;;;;;4880594;29;20444;-52
2022/05/09 08:50:23;;;;;;;15.23;5.45;;;20.50;82.10;;;;;;4881512;29;20219;-46
2022/05/09 08:53:02;;;;;;;15.38;4.53;;;20.30;81.80;;;;;;4899935;28;20058;-54
2022/05/09 08:55:35;;;;;;;15.55;4.60;;;20.60;80.60;;;;;;4959957;28;20584;-53
2022/05/09 08:58:22;;;;;;;12.43;4.25;;;20.70;79.90;;;;;;4946597;28;20046;-52
2022/05/09 09:00:50;;;;;;;9.05;4.30;;;20.70;78.40;;;;;;5042721;28;20059;-51
2022/05/09 09:03:30;;;;;;;13.20;4.90;;;20.60;79.70;;;;;;5025693;28;20079;-49
2022/05/09 09:06:11;;;;;;;10.95;4.22;;;20.70;80.10;;;;;;5034409;28;20053;-45
2022/05/09 09:08:58;;;;;;;15.07;5.00;;;20.80;80.60;;;;;;5026381;28;20597;-51
2022/05/09 09:11:53;;;;;;;12.30;3.83;;;20.70;79.10;;;;;;5019927;28;20060;-52
2022/05/09 09:14:27;;;;;;;11.90;4.15;;;20.80;76.00;;;;;;5019991;28;20049;-54
2022/05/09 09:17:04;;;;;;;16.50;4.68;;;21.00;77.80;;;;;;5039424;28;20164;-53
2022/05/09 09:19:45;;;;;;;8.93;3.03;;;21.00;75.00;;;;;;5032040;28;20703;-50
2022/05/09 09:22:30;;;;;;;8.88;3.92;;;21.10;75.80;;;;;;5032651;28;20520;-51
2022/05/09 09:25:08;;;;;;;12.55;4.13;;;21.10;71.50;;;;;;5029868;28;20515;-51
2022/05/09 09:27:49;;;;;;;8.40;4.38;;;21.20;72.10;;;;;;5035598;28;20045;-52
2022/05/09 09:30:21;;;;;;;12.40;4.20;;;21.10;72.70;;;;;;5033148;28;20059;-50
2022/05/09 09:33:03;;;;;;;10.48;4.00;;;21.20;73.40;;;;;;5030608;28;20456;-57
2022/05/09 09:35:47;;;;;;;9.35;3.72;;;21.40;75.00;;;;;;5033165;28;20128;-53
2022/05/09 09:38:34;;;;;;;12.55;4.70;;;21.50;75.70;;;;;;5034354;28;20053;-55
2022/05/09 09:41:25;;;;;;;12.98;4.43;;;21.40;73.80;;;;;;5013878;28;20116;-55
2022/05/09 09:44:08;;;;;;;9.93;4.10;;;21.40;71.60;;;;;;5030748;28;20100;-51
2022/05/09 09:46:54;;;;;;;13.13;4.22;;;21.50;71.50;;;;;;5040707;28;20134;-56
2022/05/09 09:49:20;;;;;;;11.75;3.35;;;21.70;73.00;;;;;;5034809;28;20044;-50
2022/05/09 09:51:48;;;;;;;12.10;3.70;;;21.70;71.70;;;;;;5024565;28;20038;-53
2022/05/09 09:54:21;;;;;;;10.40;3.40;;;21.50;71.50;;;;;;5024621;28;20049;-54
2022/05/09 09:56:47;;;;;;;;;;;21.60;70.60;;;;;;5023318;28;20042;-55
2022/05/09 09:59:23;;;;;;;14.18;3.90;;;21.60;69.00;;;;;;5017978;28;20003;-51
2022/05/09 10:02:12;;;;;;;8.65;3.85;;;21.40;68.10;;;;;;5030751;28;20048;-52
2022/05/09 10:04:37;;;;;;;9.90;3.50;;;21.20;69.40;;;;;;5031976;28;20107;-55
2022/05/09 10:07:13;;;;;;;13.40;4.00;;;21.10;71.10;;;;;;5030320;28;20136;-48
2022/05/09 10:10:00;;;;;;;9.25;3.38;;;21.20;71.00;;;;;;5029985;28;20060;-54
2022/05/09 10:12:31;;;;;;;10.75;3.65;;;21.50;72.60;;;;;;5024775;28;20053;-50
2022/05/09 10:14:57;;;;;;;8.35;3.38;;;21.50;70.80;;;;;;5037207;28;20045;-50
2022/05/09 10:17:25;;;;;;;11.88;3.85;;;21.50;73.30;;;;;;5032084;28;20040;-52
2022/05/09 10:19:53;;;;;;;10.15;3.38;;;21.70;68.60;;;;;;5032057;28;20063;-53
2022/05/09 10:25:24;;;;;;;9.03;3.33;;;21.80;69.20;;;;;;5040355;28;20041;-53
2022/05/09 10:28:14;;;;;;;11.00;3.38;;;22.00;68.50;;;;;;5018039;28;20300;-56
2022/05/09 10:30:44;;;;;;;10.25;3.42;;;21.90;69.10;;;;;;5034797;28;20102;-54
2022/05/09 10:33:32;;;;;;;8.90;3.17;;;22.00;67.40;;;;;;5004883;28;20423;-56
2022/05/09 10:36:04;;;;;;;12.65;3.28;;;22.10;66.80;;;;;;5036066;28;20099;-56
2022/05/09 10:38:32;;;;;;;9.30;3.63;;;22.00;65.60;;;;;;5037722;28;20068;-52
2022/05/09 10:41:13;;;;;;;6.50;2.95;;;22.10;67.00;;;;;;5034434;28;20519;-54
2022/05/09 10:44:13;;;;;;;7.82;3.17;;;22.20;69.60;;;;;;5031948;28;20454;-56
2022/05/09 10:46:51;;;;;;;11.32;3.60;;;22.20;68.00;;;;;;5029728;28;20057;-53
2022/05/09 10:49:26;;;;;;;10.38;3.63;;;22.10;66.40;;;;;;5037895;28;20049;-55
2022/05/09 10:52:28;;;;;;;9.85;3.45;;;22.10;67.50;;;;;;5039602;28;20047;-47
2022/05/09 10:55:10;;;;;;;9.88;3.58;;;22.10;65.60;;;;;;5030812;28;20045;-54
2022/05/09 10:57:53;;;;;;;9.77;3.77;;;22.00;64.60;;;;;;5030590;28;20130;-52
2022/05/09 11:00:23;;;;;;;12.07;4.15;;;22.00;65.70;;;;;;5014444;28;20114;-51
2022/05/09 11:03:00;;;;;;;8.75;3.17;;;21.90;64.60;;;;;;5016643;28;20122;-56
2022/05/09 11:05:40;;;;;;;9.88;3.67;;;21.90;69.00;;;;;;5032888;28;20053;-54
2022/05/09 11:08:42;;;;;;;9.85;3.13;;;21.90;67.20;;;;;;5025261;28;20045;-52
2022/05/09 11:11:56;;;;;;;11.52;4.07;;;21.90;65.20;;;;;;4945166;28;20058;-56
2022/05/09 11:14:33;;;;;;;7.78;3.10;;;21.80;64.30;;;;;;4896776;29;20198;-55
2022/05/09 11:17:18;;;;;;;10.40;3.22;;;21.80;65.80;;;;;;4903532;29;20523;-55
2022/05/09 11:19:53;;;;;;;6.65;2.42;;;22.00;66.80;;;;;;4902425;29;20167;-54
2022/05/09 11:22:38;;;;;;;12.63;3.47;;;22.10;67.10;;;;;;4901811;29;20055;-53
2022/05/09 11:25:15;;;;;;;16.58;3.38;;;22.20;68.20;;;;;;4902774;29;20078;-51
2022/05/09 11:28:00;;;;;;;7.97;3.30;;;22.30;67.10;;;;;;4902909;29;20060;-53
2022/05/09 11:30:43;;;;;;;9.88;2.97;;;22.60;67.60;;;;;;4906758;29;20193;-51
2022/05/09 11:33:20;;;;;;;;;;;22.60;67.50;;;;;;4901710;29;20052;-54
2022/05/09 11:35:50;;;;;;;9.30;3.58;;;22.50;65.20;;;;;;4902154;29;19927;-51
2022/05/09 11:38:35;;;;;;;10.50;3.90;;;22.50;66.30;;;;;;4886517;29;20518;-53
2022/05/09 11:41:17;;;;;;;9.32;3.50;;;22.40;65.50;;;;;;4885673;29;20424;-52
2022/05/09 11:44:12;;;;;;;8.70;2.95;;;22.40;64.90;;;;;;4901193;29;20103;-53
2022/05/09 11:46:41;;;;;;;9.00;3.10;;;22.30;63.80;;;;;;4901791;28;20056;-54
2022/05/09 11:49:14;;;;;;;9.40;3.38;;;22.30;66.60;;;;;;4977938;28;20150;-53
2022/05/09 11:51:46;;;;;;;9.10;3.08;;;22.20;66.60;;;;;;5003440;28;20056;-53
2022/05/09 11:54:26;;;;;;;10.45;2.72;;;22.20;64.40;;;;;;5016305;28;21358;-53
2022/05/09 11:57:16;;;;;;;8.48;3.60;;;22.10;66.10;;;;;;5020610;28;20085;-58
2022/05/09 11:59:50;;;;;;;9.32;3.72;;;22.10;63.40;;;;;;5016397;28;20053;-55
2022/05/09 12:02:50;;;;;;;9.90;2.85;;;22.00;63.60;;;;;;5017508;28;20159;-52
2022/05/09 12:05:29;;;;;;;11.30;3.58;;;22.10;67.50;;;;;;5014247;28;20092;-50
2022/05/09 12:08:07;;;;;;;10.13;3.45;;;22.30;66.10;;;;;;5013986;28;20053;-52
2022/05/09 12:10:38;;;;;;;12.63;3.33;;;22.50;66.70;;;;;;5015651;28;20557;-53
2022/05/09 12:13:14;;;;;;;8.45;3.20;;;22.60;65.90;;;;;;5009491;28;20095;-46
2022/05/09 12:15:44;;;;;;;6.78;3.00;;;22.70;65.30;;;;;;5028540;28;20087;-50
2022/05/09 12:18:32;;;;;;;12.30;3.08;;;22.60;66.40;;;;;;5026118;28;20266;-53
2022/05/09 12:21:21;;;;;;;10.65;4.03;;;22.60;63.10;;;;;;5031847;28;20049;-55
2022/05/09 12:23:47;;;;;;;10.80;3.30;;;22.50;64.90;;;;;;5025449;28;20662;-53
2022/05/09 12:26:44;;;;;;;9.52;2.67;;;22.40;66.80;;;;;;5035604;28;20562;-55
2022/05/09 12:29:16;;;;;;;11.55;3.70;;;22.40;65.00;;;;;;4938964;28;20123;-51
2022/05/09 12:31:46;;;;;;;8.83;3.07;;;22.40;64.10;;;;;;4938761;28;20086;-52
2022/05/09 12:34:14;;;;;;;11.68;3.70;;;22.40;65.80;;;;;;4932263;28;20309;-56
2022/05/09 12:36:42;;;;;;;11.00;3.38;;;22.30;64.60;;;;;;4925644;28;20081;-56
2022/05/09 12:39:25;;;;;;;12.18;3.30;;;22.40;65.80;;;;;;4940913;28;20063;-54
2022/05/09 12:42:02;;;;;;;9.77;3.30;;;22.50;66.70;;;;;;4924787;29;20090;-52
2022/05/09 12:44:46;;;;;;;10.10;3.28;;;22.50;64.20;;;;;;4939385;28;20521;-53
2022/05/09 12:47:22;;;;;;;9.07;3.13;;;22.50;65.30;;;;;;4941055;28;20055;-54
2022/05/09 12:49:56;;;;;;;7.53;3.05;;;22.70;68.00;;;;;;4936654;28;20458;-55
2022/05/09 12:52:26;;;;;;;14.10;3.75;;;22.80;67.00;;;;;;4934678;28;20450;-53
2022/05/09 12:57:40;;;;;;;8.38;3.00;;;22.80;69.20;;;;;;4939452;28;20055;-54
2022/05/09 13:00:13;;;;;;;7.07;2.80;;;22.70;65.40;;;;;;4946893;28;20565;-54
2022/05/09 13:02:39;;;;;;;7.88;3.28;;;22.60;66.50;;;;;;4922494;29;20150;-56
2022/05/09 13:05:07;;;;;;;11.40;2.92;;;22.50;65.30;;;;;;4941891;28;20572;-52
2022/05/09 13:07:33;;;;;;;6.70;2.80;;;22.60;65.40;;;;;;5033454;28;20049;-50
2022/05/09 13:09:58;;;;;;;7.88;3.03;;;22.40;63.80;;;;;;5023013;28;20052;-52
2022/05/09 13:12:32;;;;;;;13.52;3.50;;;22.30;63.70;;;;;;5027563;28;20094;-51
2022/05/09 13:15:00;;;;;;;9.35;3.15;;;22.20;63.80;;;;;;5033741;28;20049;-51
2022/05/09 13:17:35;;;;;;;8.35;2.88;;;22.30;64.30;;;;;;5027714;28;20053;-47
2022/05/09 13:20:01;;;;;;;9.07;2.58;;;22.30;68.40;;;;;;5031864;28;20560;-54